Terminal Aerodrome Forecast
Issued by NWS Twin Cities, MN

Home | Current Version | Previous Version | Graphics & Text | Print | Product List | Glossary On
Versions: 1 2 3 4 5 6 7 8 9 10 11 12 13 14 15 16 17 18
000
FTUS43 KMPX 232215 AAB
TAFSTC
TAF AMD
KSTC 232215Z 2322/2418 02010KT P6SM SCT015 OVC080
     FM240000 02011KT P6SM BKN015
     FM240600 02012G21KT P6SM OVC060=

USA.gov is the U.S. government's official web portal to all federal, state and local government web resources and services.